sensor_id;sensor_type;location;lat;lon;timestamp;P1;durP1;ratioP1;P2;durP2;ratioP2
14900;SDS011;7542;49.078;9.194;2023-04-29T00:00:43;0.68;;;0.60;;
14900;SDS011;7542;49.078;9.194;2023-04-29T00:01:45;0.40;;;0.40;;
14900;SDS011;7542;49.078;9.194;2023-04-29T00:02:47;0.60;;;0.60;;
14900;SDS011;7542;49.078;9.194;2023-04-29T00:03:50;0.70;;;0.65;;
14900;SDS011;7542;49.078;9.194;2023-04-29T00:04:53;0.70;;;0.70;;
14900;SDS011;7542;49.078;9.194;2023-04-29T00:05:55;0.50;;;0.47;;
14900;SDS011;7542;49.078;9.194;2023-04-29T00:06:57;0.60;;;0.60;;
14900;SDS011;7542;49.078;9.194;2023-04-29T00:07:59;0.80;;;0.80;;
14900;SDS011;7542;49.078;9.194;2023-04-29T00:09:01;1.88;;;0.70;;
14900;SDS011;7542;49.078;9.194;2023-04-29T00:10:04;0.68;;;0.68;;
14900;SDS011;7542;49.078;9.194;2023-04-29T00:11:07;0.52;;;0.52;;
14900;SDS011;7542;49.078;9.194;2023-04-29T00:12:09;0.70;;;0.70;;
14900;SDS011;7542;49.078;9.194;2023-04-29T00:13:11;0.80;;;0.80;;
14900;SDS011;7542;49.078;9.194;2023-04-29T00:14:13;0.77;;;0.77;;
14900;SDS011;7542;49.078;9.194;2023-04-29T00:15:15;0.65;;;0.65;;
14900;SDS011;7542;49.078;9.194;2023-04-29T00:16:18;0.65;;;0.55;;
14900;SDS011;7542;49.078;9.194;2023-04-29T00:17:20;0.47;;;0.47;;
14900;SDS011;7542;49.078;9.194;2023-04-29T00:18:22;0.73;;;0.73;;
14900;SDS011;7542;49.078;9.194;2023-04-29T00:19:24;0.43;;;0.43;;
14900;SDS011;7542;49.078;9.194;2023-04-29T00:20:26;0.80;;;0.80;;
14900;SDS011;7542;49.078;9.194;2023-04-29T00:21:28;0.70;;;0.70;;
14900;SDS011;7542;49.078;9.194;2023-04-29T00:22:30;0.70;;;0.70;;
14900;SDS011;7542;49.078;9.194;2023-04-29T00:23:32;0.80;;;0.80;;
14900;SDS011;7542;49.078;9.194;2023-04-29T00:24:35;0.70;;;0.70;;
14900;SDS011;7542;49.078;9.194;2023-04-29T00:25:37;0.70;;;0.70;;
14900;SDS011;7542;49.078;9.194;2023-04-29T00:26:39;0.52;;;0.52;;
14900;SDS011;7542;49.078;9.194;2023-04-29T00:27:41;0.47;;;0.47;;
14900;SDS011;7542;49.078;9.194;2023-04-29T00:28:43;0.70;;;0.70;;
14900;SDS011;7542;49.078;9.194;2023-04-29T00:29:46;0.60;;;0.60;;
14900;SDS011;7542;49.078;9.194;2023-04-29T00:30:48;0.50;;;0.50;;
14900;SDS011;7542;49.078;9.194;2023-04-29T00:31:50;0.63;;;0.63;;
14900;SDS011;7542;49.078;9.194;2023-04-29T00:32:52;0.55;;;0.55;;
14900;SDS011;7542;49.078;9.194;2023-04-29T00:33:54;1.25;;;0.70;;
14900;SDS011;7542;49.078;9.194;2023-04-29T00:34:56;0.77;;;0.60;;
14900;SDS011;7542;49.078;9.194;2023-04-29T00:35:58;0.70;;;0.70;;
14900;SDS011;7542;49.078;9.194;2023-04-29T00:37:00;0.77;;;0.77;;
14900;SDS011;7542;49.078;9.194;2023-04-29T00:38:02;0.90;;;0.90;;
14900;SDS011;7542;49.078;9.194;2023-04-29T00:39:04;0.57;;;0.57;;
14900;SDS011;7542;49.078;9.194;2023-04-29T00:40:06;1.27;;;0.70;;
14900;SDS011;7542;49.078;9.194;2023-04-29T00:41:09;0.95;;;0.73;;
14900;SDS011;7542;49.078;9.194;2023-04-29T00:42:11;0.77;;;0.77;;
14900;SDS011;7542;49.078;9.194;2023-04-29T00:43:13;0.50;;;0.50;;
14900;SDS011;7542;49.078;9.194;2023-04-29T00:44:15;0.47;;;0.47;;
14900;SDS011;7542;49.078;9.194;2023-04-29T00:45:17;1.27;;;0.85;;
14900;SDS011;7542;49.078;9.194;2023-04-29T00:46:19;0.60;;;0.60;;
14900;SDS011;7542;49.078;9.194;2023-04-29T00:47:21;0.60;;;0.60;;
14900;SDS011;7542;49.078;9.194;2023-04-29T00:48:23;0.50;;;0.50;;
14900;SDS011;7542;49.078;9.194;2023-04-29T00:49:25;0.50;;;0.50;;
14900;SDS011;7542;49.078;9.194;2023-04-29T00:50:28;0.57;;;0.57;;
14900;SDS011;7542;49.078;9.194;2023-04-29T00:51:31;0.70;;;0.55;;
14900;SDS011;7542;49.078;9.194;2023-04-29T00:52:33;0.53;;;0.53;;
14900;SDS011;7542;49.078;9.194;2023-04-29T00:53:38;0.70;;;0.70;;
14900;SDS011;7542;49.078;9.194;2023-04-29T00:54:41;1.40;;;0.60;;
14900;SDS011;7542;49.078;9.194;2023-04-29T00:55:44;0.63;;;0.63;;
14900;SDS011;7542;49.078;9.194;2023-04-29T00:56:48;0.55;;;0.55;;
14900;SDS011;7542;49.078;9.194;2023-04-29T00:57:51;1.17;;;0.63;;
14900;SDS011;7542;49.078;9.194;2023-04-29T00:58:53;1.05;;;0.60;;
14900;SDS011;7542;49.078;9.194;2023-04-29T00:59:56;0.63;;;0.63;;
14900;SDS011;7542;49.078;9.194;2023-04-29T01:01:00;0.70;;;0.70;;
14900;SDS011;7542;49.078;9.194;2023-04-29T01:02:04;0.55;;;0.55;;
14900;SDS011;7542;49.078;9.194;2023-04-29T01:03:05;1.65;;;0.63;;
14900;SDS011;7542;49.078;9.194;2023-04-29T01:04:09;1.20;;;0.68;;
14900;SDS011;7542;49.078;9.194;2023-04-29T01:05:13;0.73;;;0.73;;
14900;SDS011;7542;49.078;9.194;2023-04-29T01:09:01;0.73;;;0.73;;
14900;SDS011;7542;49.078;9.194;2023-04-29T01:13:42;0.50;;;0.50;;
14900;SDS011;7542;49.078;9.194;2023-04-29T01:15:00;0.45;;;0.45;;
14900;SDS011;7542;49.078;9.194;2023-04-29T01:16:12;0.63;;;0.63;;
14900;SDS011;7542;49.078;9.194;2023-04-29T01:17:26;0.60;;;0.60;;
14900;SDS011;7542;49.078;9.194;2023-04-29T01:18:44;0.60;;;0.60;;
14900;SDS011;7542;49.078;9.194;2023-04-29T01:19:54;0.52;;;0.52;;
14900;SDS011;7542;49.078;9.194;2023-04-29T01:20:59;0.50;;;0.50;;
14900;SDS011;7542;49.078;9.194;2023-04-29T01:22:02;0.40;;;0.40;;
14900;SDS011;7542;49.078;9.194;2023-04-29T01:23:04;0.70;;;0.70;;
14900;SDS011;7542;49.078;9.194;2023-04-29T01:24:06;0.63;;;0.63;;
14900;SDS011;7542;49.078;9.194;2023-04-29T01:25:08;0.40;;;0.40;;
14900;SDS011;7542;49.078;9.194;2023-04-29T01:26:10;0.60;;;0.60;;
14900;SDS011;7542;49.078;9.194;2023-04-29T01:31:52;0.60;;;0.60;;
14900;SDS011;7542;49.078;9.194;2023-04-29T01:34:51;0.77;;;0.57;;
14900;SDS011;7542;49.078;9.194;2023-04-29T01:38:36;0.50;;;0.50;;
14900;SDS011;7542;49.078;9.194;2023-04-29T01:39:59;0.43;;;0.43;;
14900;SDS011;7542;49.078;9.194;2023-04-29T01:42:25;0.60;;;0.60;;
14900;SDS011;7542;49.078;9.194;2023-04-29T01:43:39;0.80;;;0.80;;
14900;SDS011;7542;49.078;9.194;2023-04-29T01:44:43;0.50;;;0.50;;
14900;SDS011;7542;49.078;9.194;2023-04-29T01:45:49;0.60;;;0.60;;
14900;SDS011;7542;49.078;9.194;2023-04-29T01:46:54;1.05;;;0.63;;
14900;SDS011;7542;49.078;9.194;2023-04-29T01:47:57;0.50;;;0.50;;
14900;SDS011;7542;49.078;9.194;2023-04-29T01:49:01;0.70;;;0.70;;
14900;SDS011;7542;49.078;9.194;2023-04-29T01:50:03;0.45;;;0.45;;
14900;SDS011;7542;49.078;9.194;2023-04-29T01:51:06;1.50;;;0.60;;
14900;SDS011;7542;49.078;9.194;2023-04-29T01:52:08;0.50;;;0.50;;
14900;SDS011;7542;49.078;9.194;2023-04-29T01:53:10;0.52;;;0.52;;
14900;SDS011;7542;49.078;9.194;2023-04-29T01:54:12;0.50;;;0.50;;
14900;SDS011;7542;49.078;9.194;2023-04-29T01:55:14;0.80;;;0.80;;
14900;SDS011;7542;49.078;9.194;2023-04-29T01:56:16;0.70;;;0.70;;
14900;SDS011;7542;49.078;9.194;2023-04-29T01:57:18;0.70;;;0.70;;
14900;SDS011;7542;49.078;9.194;2023-04-29T01:58:20;0.97;;;0.80;;
14900;SDS011;7542;49.078;9.194;2023-04-29T01:59:22;0.80;;;0.80;;
14900;SDS011;7542;49.078;9.194;2023-04-29T02:00:23;1.30;;;0.55;;
14900;SDS011;7542;49.078;9.194;2023-04-29T02:01:25;0.57;;;0.57;;
14900;SDS011;7542;49.078;9.194;2023-04-29T02:02:27;0.87;;;0.77;;
14900;SDS011;7542;49.078;9.194;2023-04-29T02:03:30;0.50;;;0.50;;
14900;SDS011;7542;49.078;9.194;2023-04-29T02:04:32;0.60;;;0.60;;
14900;SDS011;7542;49.078;9.194;2023-04-29T02:05:34;0.75;;;0.75;;
14900;SDS011;7542;49.078;9.194;2023-04-29T02:06:36;0.60;;;0.60;;
14900;SDS011;7542;49.078;9.194;2023-04-29T02:07:38;0.50;;;0.50;;
14900;SDS011;7542;49.078;9.194;2023-04-29T02:08:42;0.70;;;0.70;;
14900;SDS011;7542;49.078;9.194;2023-04-29T02:09:44;0.70;;;0.70;;
14900;SDS011;7542;49.078;9.194;2023-04-29T02:10:55;0.57;;;0.57;;
14900;SDS011;7542;49.078;9.194;2023-04-29T02:11:59;0.60;;;0.60;;
14900;SDS011;7542;49.078;9.194;2023-04-29T02:13:01;0.50;;;0.50;;
14900;SDS011;7542;49.078;9.194;2023-04-29T02:14:03;0.57;;;0.57;;
14900;SDS011;7542;49.078;9.194;2023-04-29T02:15:05;0.70;;;0.70;;
14900;SDS011;7542;49.078;9.194;2023-04-29T02:16:09;0.60;;;0.60;;
14900;SDS011;7542;49.078;9.194;2023-04-29T02:17:13;0.43;;;0.43;;
14900;SDS011;7542;49.078;9.194;2023-04-29T02:18:15;0.50;;;0.50;;
14900;SDS011;7542;49.078;9.194;2023-04-29T02:19:16;0.50;;;0.50;;
14900;SDS011;7542;49.078;9.194;2023-04-29T02:20:19;0.73;;;0.73;;
14900;SDS011;7542;49.078;9.194;2023-04-29T02:21:21;0.40;;;0.40;;
14900;SDS011;7542;49.078;9.194;2023-04-29T02:22:24;0.50;;;0.50;;
14900;SDS011;7542;49.078;9.194;2023-04-29T02:23:27;0.90;;;0.70;;
14900;SDS011;7542;49.078;9.194;2023-04-29T02:24:29;0.70;;;0.70;;
14900;SDS011;7542;49.078;9.194;2023-04-29T02:25:31;0.87;;;0.77;;
14900;SDS011;7542;49.078;9.194;2023-04-29T02:26:33;0.77;;;0.77;;
14900;SDS011;7542;49.078;9.194;2023-04-29T02:27:35;0.60;;;0.60;;
14900;SDS011;7542;49.078;9.194;2023-04-29T02:28:38;1.80;;;0.70;;
14900;SDS011;7542;49.078;9.194;2023-04-29T02:29:40;1.13;;;0.70;;
14900;SDS011;7542;49.078;9.194;2023-04-29T02:30:42;0.60;;;0.60;;
14900;SDS011;7542;49.078;9.194;2023-04-29T02:31:44;0.50;;;0.50;;
14900;SDS011;7542;49.078;9.194;2023-04-29T02:32:46;0.73;;;0.73;;
14900;SDS011;7542;49.078;9.194;2023-04-29T02:33:49;0.43;;;0.43;;
14900;SDS011;7542;49.078;9.194;2023-04-29T02:34:50;0.60;;;0.60;;
14900;SDS011;7542;49.078;9.194;2023-04-29T02:35:53;0.70;;;0.70;;
14900;SDS011;7542;49.078;9.194;2023-04-29T02:36:55;0.60;;;0.60;;
14900;SDS011;7542;49.078;9.194;2023-04-29T02:37:57;0.70;;;0.70;;
14900;SDS011;7542;49.078;9.194;2023-04-29T02:38:59;0.80;;;0.80;;
14900;SDS011;7542;49.078;9.194;2023-04-29T02:40:00;0.50;;;0.50;;
14900;SDS011;7542;49.078;9.194;2023-04-29T02:41:03;0.70;;;0.47;;
14900;SDS011;7542;49.078;9.194;2023-04-29T02:42:05;0.70;;;0.70;;
14900;SDS011;7542;49.078;9.194;2023-04-29T02:43:07;0.70;;;0.70;;
14900;SDS011;7542;49.078;9.194;2023-04-29T02:44:10;0.60;;;0.60;;
14900;SDS011;7542;49.078;9.194;2023-04-29T02:45:12;0.60;;;0.60;;
14900;SDS011;7542;49.078;9.194;2023-04-29T02:46:14;0.47;;;0.47;;
14900;SDS011;7542;49.078;9.194;2023-04-29T02:47:17;0.73;;;0.73;;
14900;SDS011;7542;49.078;9.194;2023-04-29T02:48:18;0.50;;;0.50;;
14900;SDS011;7542;49.078;9.194;2023-04-29T02:49:20;0.90;;;0.90;;
14900;SDS011;7542;49.078;9.194;2023-04-29T02:50:22;0.90;;;0.90;;
14900;SDS011;7542;49.078;9.194;2023-04-29T02:51:25;0.60;;;0.60;;
14900;SDS011;7542;49.078;9.194;2023-04-29T02:52:28;0.50;;;0.50;;
14900;SDS011;7542;49.078;9.194;2023-04-29T02:53:30;0.60;;;0.60;;
14900;SDS011;7542;49.078;9.194;2023-04-29T02:54:32;0.93;;;0.77;;
14900;SDS011;7542;49.078;9.194;2023-04-29T02:55:33;0.73;;;0.73;;
14900;SDS011;7542;49.078;9.194;2023-04-29T02:56:35;0.60;;;0.60;;
14900;SDS011;7542;49.078;9.194;2023-04-29T02:57:37;0.70;;;0.70;;
14900;SDS011;7542;49.078;9.194;2023-04-29T02:58:40;0.70;;;0.70;;
14900;SDS011;7542;49.078;9.194;2023-04-29T02:59:42;0.80;;;0.60;;
14900;SDS011;7542;49.078;9.194;2023-04-29T03:00:44;0.90;;;0.90;;
14900;SDS011;7542;49.078;9.194;2023-04-29T03:01:46;0.60;;;0.60;;
14900;SDS011;7542;49.078;9.194;2023-04-29T03:02:48;0.70;;;0.70;;
14900;SDS011;7542;49.078;9.194;2023-04-29T03:03:50;0.60;;;0.60;;
14900;SDS011;7542;49.078;9.194;2023-04-29T03:04:53;0.77;;;0.60;;
14900;SDS011;7542;49.078;9.194;2023-04-29T03:05:55;0.67;;;0.67;;
14900;SDS011;7542;49.078;9.194;2023-04-29T03:06:57;0.60;;;0.60;;
14900;SDS011;7542;49.078;9.194;2023-04-29T03:07:59;0.77;;;0.77;;
14900;SDS011;7542;49.078;9.194;2023-04-29T03:09:01;0.47;;;0.47;;
14900;SDS011;7542;49.078;9.194;2023-04-29T03:10:04;2.13;;;0.63;;
14900;SDS011;7542;49.078;9.194;2023-04-29T03:11:07;0.67;;;0.67;;
14900;SDS011;7542;49.078;9.194;2023-04-29T03:12:09;0.80;;;0.80;;
14900;SDS011;7542;49.078;9.194;2023-04-29T03:13:12;0.60;;;0.60;;
14900;SDS011;7542;49.078;9.194;2023-04-29T03:14:14;0.60;;;0.60;;
14900;SDS011;7542;49.078;9.194;2023-04-29T03:15:16;0.90;;;0.90;;
14900;SDS011;7542;49.078;9.194;2023-04-29T03:16:18;0.70;;;0.70;;
14900;SDS011;7542;49.078;9.194;2023-04-29T03:17:20;0.50;;;0.50;;
14900;SDS011;7542;49.078;9.194;2023-04-29T03:18:22;1.03;;;0.73;;
14900;SDS011;7542;49.078;9.194;2023-04-29T03:19:24;0.90;;;0.90;;
14900;SDS011;7542;49.078;9.194;2023-04-29T03:20:26;0.40;;;0.40;;
14900;SDS011;7542;49.078;9.194;2023-04-29T03:21:28;0.83;;;0.60;;
14900;SDS011;7542;49.078;9.194;2023-04-29T03:22:30;0.77;;;0.77;;
14900;SDS011;7542;49.078;9.194;2023-04-29T03:23:32;0.80;;;0.80;;
14900;SDS011;7542;49.078;9.194;2023-04-29T03:24:33;0.80;;;0.80;;
14900;SDS011;7542;49.078;9.194;2023-04-29T03:25:36;0.70;;;0.70;;
14900;SDS011;7542;49.078;9.194;2023-04-29T03:26:38;0.90;;;0.90;;
14900;SDS011;7542;49.078;9.194;2023-04-29T03:27:40;1.23;;;0.70;;
14900;SDS011;7542;49.078;9.194;2023-04-29T03:28:42;0.70;;;0.70;;
14900;SDS011;7542;49.078;9.194;2023-04-29T03:29:44;0.73;;;0.73;;
14900;SDS011;7542;49.078;9.194;2023-04-29T03:30:46;0.50;;;0.50;;
14900;SDS011;7542;49.078;9.194;2023-04-29T03:31:48;0.50;;;0.50;;
14900;SDS011;7542;49.078;9.194;2023-04-29T03:32:50;0.50;;;0.50;;
14900;SDS011;7542;49.078;9.194;2023-04-29T03:33:52;0.60;;;0.50;;
14900;SDS011;7542;49.078;9.194;2023-04-29T03:34:54;0.60;;;0.60;;
14900;SDS011;7542;49.078;9.194;2023-04-29T03:35:57;0.80;;;0.60;;
14900;SDS011;7542;49.078;9.194;2023-04-29T03:36:59;1.07;;;0.60;;
14900;SDS011;7542;49.078;9.194;2023-04-29T03:38:02;1.47;;;1.37;;
14900;SDS011;7542;49.078;9.194;2023-04-29T03:39:06;0.60;;;0.60;;
14900;SDS011;7542;49.078;9.194;2023-04-29T03:40:08;0.63;;;0.63;;
14900;SDS011;7542;49.078;9.194;2023-04-29T03:41:11;1.53;;;0.83;;
14900;SDS011;7542;49.078;9.194;2023-04-29T03:42:13;0.70;;;0.70;;
14900;SDS011;7542;49.078;9.194;2023-04-29T03:43:16;0.80;;;0.80;;
14900;SDS011;7542;49.078;9.194;2023-04-29T03:44:18;0.63;;;0.63;;
14900;SDS011;7542;49.078;9.194;2023-04-29T03:45:20;0.80;;;0.80;;
14900;SDS011;7542;49.078;9.194;2023-04-29T03:46:22;0.70;;;0.70;;
14900;SDS011;7542;49.078;9.194;2023-04-29T03:47:24;0.70;;;0.70;;
14900;SDS011;7542;49.078;9.194;2023-04-29T03:48:26;0.70;;;0.70;;
14900;SDS011;7542;49.078;9.194;2023-04-29T03:49:28;0.70;;;0.70;;
14900;SDS011;7542;49.078;9.194;2023-04-29T03:50:30;0.73;;;0.67;;
14900;SDS011;7542;49.078;9.194;2023-04-29T03:51:32;0.60;;;0.60;;
14900;SDS011;7542;49.078;9.194;2023-04-29T03:52:34;3.23;;;0.80;;
14900;SDS011;7542;49.078;9.194;2023-04-29T03:53:36;0.60;;;0.60;;
14900;SDS011;7542;49.078;9.194;2023-04-29T03:54:38;0.50;;;0.50;;
14900;SDS011;7542;49.078;9.194;2023-04-29T03:55:40;0.73;;;0.73;;
14900;SDS011;7542;49.078;9.194;2023-04-29T03:56:42;0.70;;;0.70;;
14900;SDS011;7542;49.078;9.194;2023-04-29T03:57:45;0.80;;;0.80;;
14900;SDS011;7542;49.078;9.194;2023-04-29T03:58:46;0.70;;;0.70;;
14900;SDS011;7542;49.078;9.194;2023-04-29T03:59:49;0.80;;;0.80;;
14900;SDS011;7542;49.078;9.194;2023-04-29T04:00:51;0.83;;;0.83;;
14900;SDS011;7542;49.078;9.194;2023-04-29T04:01:53;0.70;;;0.70;;
14900;SDS011;7542;49.078;9.194;2023-04-29T04:02:56;0.60;;;0.60;;
14900;SDS011;7542;49.078;9.194;2023-04-29T04:03:59;1.07;;;0.93;;
14900;SDS011;7542;49.078;9.194;2023-04-29T04:05:02;0.70;;;0.70;;
14900;SDS011;7542;49.078;9.194;2023-04-29T04:06:04;0.60;;;0.60;;
14900;SDS011;7542;49.078;9.194;2023-04-29T04:07:06;0.60;;;0.60;;
14900;SDS011;7542;49.078;9.194;2023-04-29T04:08:08;0.70;;;0.70;;
14900;SDS011;7542;49.078;9.194;2023-04-29T04:09:11;1.27;;;0.77;;
14900;SDS011;7542;49.078;9.194;2023-04-29T04:10:13;0.83;;;0.83;;
14900;SDS011;7542;49.078;9.194;2023-04-29T04:11:15;0.87;;;0.87;;
14900;SDS011;7542;49.078;9.194;2023-04-29T04:12:17;0.63;;;0.63;;
14900;SDS011;7542;49.078;9.194;2023-04-29T04:13:19;0.77;;;0.77;;
14900;SDS011;7542;49.078;9.194;2023-04-29T04:14:21;0.80;;;0.80;;
14900;SDS011;7542;49.078;9.194;2023-04-29T04:15:23;0.80;;;0.80;;
14900;SDS011;7542;49.078;9.194;2023-04-29T04:16:25;1.00;;;1.00;;
14900;SDS011;7542;49.078;9.194;2023-04-29T04:17:27;0.80;;;0.80;;
14900;SDS011;7542;49.078;9.194;2023-04-29T04:18:29;0.80;;;0.80;;
14900;SDS011;7542;49.078;9.194;2023-04-29T04:19:31;0.73;;;0.73;;
14900;SDS011;7542;49.078;9.194;2023-04-29T04:20:37;0.80;;;0.80;;
14900;SDS011;7542;49.078;9.194;2023-04-29T04:21:39;0.77;;;0.77;;
14900;SDS011;7542;49.078;9.194;2023-04-29T04:22:41;0.80;;;0.80;;
14900;SDS011;7542;49.078;9.194;2023-04-29T04:23:43;1.00;;;1.00;;
14900;SDS011;7542;49.078;9.194;2023-04-29T04:24:45;0.93;;;0.93;;
14900;SDS011;7542;49.078;9.194;2023-04-29T04:25:47;1.07;;;1.07;;
14900;SDS011;7542;49.078;9.194;2023-04-29T04:26:50;0.93;;;0.93;;
14900;SDS011;7542;49.078;9.194;2023-04-29T04:27:52;0.63;;;0.63;;
14900;SDS011;7542;49.078;9.194;2023-04-29T04:28:54;0.80;;;0.80;;
14900;SDS011;7542;49.078;9.194;2023-04-29T04:29:56;0.90;;;0.90;;
14900;SDS011;7542;49.078;9.194;2023-04-29T04:30:59;0.73;;;0.73;;
14900;SDS011;7542;49.078;9.194;2023-04-29T04:32:01;0.70;;;0.70;;
14900;SDS011;7542;49.078;9.194;2023-04-29T04:33:04;0.97;;;0.97;;
14900;SDS011;7542;49.078;9.194;2023-04-29T04:34:06;0.97;;;0.97;;
14900;SDS011;7542;49.078;9.194;2023-04-29T04:35:08;1.03;;;1.00;;
14900;SDS011;7542;49.078;9.194;2023-04-29T04:36:10;0.97;;;0.90;;
14900;SDS011;7542;49.078;9.194;2023-04-29T04:37:12;0.70;;;0.70;;
14900;SDS011;7542;49.078;9.194;2023-04-29T04:38:14;1.00;;;1.00;;
14900;SDS011;7542;49.078;9.194;2023-04-29T04:39:17;1.23;;;1.23;;
14900;SDS011;7542;49.078;9.194;2023-04-29T04:40:19;1.00;;;1.00;;
14900;SDS011;7542;49.078;9.194;2023-04-29T04:41:22;0.80;;;0.80;;
14900;SDS011;7542;49.078;9.194;2023-04-29T04:42:24;0.90;;;0.90;;
14900;SDS011;7542;49.078;9.194;2023-04-29T04:43:25;0.70;;;0.70;;
14900;SDS011;7542;49.078;9.194;2023-04-29T04:44:27;1.93;;;0.90;;
14900;SDS011;7542;49.078;9.194;2023-04-29T04:45:30;1.00;;;1.00;;
14900;SDS011;7542;49.078;9.194;2023-04-29T04:46:32;0.60;;;0.60;;
14900;SDS011;7542;49.078;9.194;2023-04-29T04:47:34;0.70;;;0.70;;
14900;SDS011;7542;49.078;9.194;2023-04-29T04:48:37;0.70;;;0.70;;
14900;SDS011;7542;49.078;9.194;2023-04-29T04:49:39;0.70;;;0.70;;
14900;SDS011;7542;49.078;9.194;2023-04-29T04:50:41;0.70;;;0.70;;
14900;SDS011;7542;49.078;9.194;2023-04-29T04:51:43;0.70;;;0.70;;
14900;SDS011;7542;49.078;9.194;2023-04-29T04:52:46;0.80;;;0.80;;
14900;SDS011;7542;49.078;9.194;2023-04-29T04:53:47;0.47;;;0.47;;
14900;SDS011;7542;49.078;9.194;2023-04-29T04:54:49;0.80;;;0.80;;
14900;SDS011;7542;49.078;9.194;2023-04-29T04:55:51;0.43;;;0.43;;
14900;SDS011;7542;49.078;9.194;2023-04-29T04:56:53;0.70;;;0.60;;
14900;SDS011;7542;49.078;9.194;2023-04-29T04:57:55;0.80;;;0.80;;
14900;SDS011;7542;49.078;9.194;2023-04-29T04:58:58;0.70;;;0.70;;
14900;SDS011;7542;49.078;9.194;2023-04-29T05:00:00;0.60;;;0.60;;
14900;SDS011;7542;49.078;9.194;2023-04-29T05:01:05;0.83;;;0.60;;
14900;SDS011;7542;49.078;9.194;2023-04-29T05:02:08;0.60;;;0.60;;
14900;SDS011;7542;49.078;9.194;2023-04-29T05:03:10;0.67;;;0.67;;
14900;SDS011;7542;49.078;9.194;2023-04-29T05:04:12;1.13;;;0.83;;
14900;SDS011;7542;49.078;9.194;2023-04-29T05:05:15;0.30;;;0.30;;
14900;SDS011;7542;49.078;9.194;2023-04-29T05:06:17;0.60;;;0.60;;
14900;SDS011;7542;49.078;9.194;2023-04-29T05:07:20;0.50;;;0.50;;
14900;SDS011;7542;49.078;9.194;2023-04-29T05:08:22;0.50;;;0.50;;
14900;SDS011;7542;49.078;9.194;2023-04-29T05:09:24;0.70;;;0.70;;
14900;SDS011;7542;49.078;9.194;2023-04-29T05:10:27;0.50;;;0.50;;
14900;SDS011;7542;49.078;9.194;2023-04-29T05:11:29;0.60;;;0.60;;
14900;SDS011;7542;49.078;9.194;2023-04-29T05:12:31;0.57;;;0.57;;
14900;SDS011;7542;49.078;9.194;2023-04-29T05:13:35;0.40;;;0.40;;
14900;SDS011;7542;49.078;9.194;2023-04-29T05:14:37;0.67;;;0.67;;
14900;SDS011;7542;49.078;9.194;2023-04-29T05:15:39;0.97;;;0.70;;
14900;SDS011;7542;49.078;9.194;2023-04-29T05:16:41;0.60;;;0.60;;
14900;SDS011;7542;49.078;9.194;2023-04-29T05:17:45;0.50;;;0.50;;
14900;SDS011;7542;49.078;9.194;2023-04-29T05:18:47;0.53;;;0.40;;
14900;SDS011;7542;49.078;9.194;2023-04-29T05:19:49;0.50;;;0.50;;
14900;SDS011;7542;49.078;9.194;2023-04-29T05:20:51;0.93;;;0.60;;
14900;SDS011;7542;49.078;9.194;2023-04-29T05:21:53;0.60;;;0.60;;
14900;SDS011;7542;49.078;9.194;2023-04-29T05:22:55;0.60;;;0.60;;
14900;SDS011;7542;49.078;9.194;2023-04-29T05:23:57;0.60;;;0.60;;
14900;SDS011;7542;49.078;9.194;2023-04-29T05:24:59;0.60;;;0.60;;
14900;SDS011;7542;49.078;9.194;2023-04-29T05:26:03;0.50;;;0.50;;
14900;SDS011;7542;49.078;9.194;2023-04-29T05:27:05;0.60;;;0.60;;
14900;SDS011;7542;49.078;9.194;2023-04-29T05:28:07;0.50;;;0.50;;
14900;SDS011;7542;49.078;9.194;2023-04-29T05:29:09;0.70;;;0.70;;
14900;SDS011;7542;49.078;9.194;2023-04-29T05:30:12;0.60;;;0.60;;
14900;SDS011;7542;49.078;9.194;2023-04-29T05:31:14;0.70;;;0.70;;
14900;SDS011;7542;49.078;9.194;2023-04-29T05:32:16;0.90;;;0.50;;
14900;SDS011;7542;49.078;9.194;2023-04-29T05:33:18;0.70;;;0.70;;
14900;SDS011;7542;49.078;9.194;2023-04-29T05:34:20;0.50;;;0.50;;
14900;SDS011;7542;49.078;9.194;2023-04-29T05:35:22;1.27;;;0.50;;
14900;SDS011;7542;49.078;9.194;2023-04-29T05:36:25;0.70;;;0.70;;
14900;SDS011;7542;49.078;9.194;2023-04-29T05:37:28;0.50;;;0.50;;
14900;SDS011;7542;49.078;9.194;2023-04-29T05:38:32;0.67;;;0.67;;
14900;SDS011;7542;49.078;9.194;2023-04-29T05:39:34;0.63;;;0.63;;
14900;SDS011;7542;49.078;9.194;2023-04-29T05:40:36;1.02;;;0.70;;
14900;SDS011;7542;49.078;9.194;2023-04-29T05:41:38;1.50;;;0.53;;
14900;SDS011;7542;49.078;9.194;2023-04-29T05:42:40;0.60;;;0.60;;
14900;SDS011;7542;49.078;9.194;2023-04-29T05:43:43;0.77;;;0.77;;
14900;SDS011;7542;49.078;9.194;2023-04-29T05:44:44;0.60;;;0.60;;
14900;SDS011;7542;49.078;9.194;2023-04-29T05:45:47;0.80;;;0.80;;
14900;SDS011;7542;49.078;9.194;2023-04-29T05:46:49;0.77;;;0.70;;
14900;SDS011;7542;49.078;9.194;2023-04-29T05:47:52;0.30;;;0.30;;
14900;SDS011;7542;49.078;9.194;2023-04-29T05:48:54;0.70;;;0.70;;
14900;SDS011;7542;49.078;9.194;2023-04-29T05:49:56;2.60;;;0.60;;
14900;SDS011;7542;49.078;9.194;2023-04-29T05:50:58;0.50;;;0.50;;
14900;SDS011;7542;49.078;9.194;2023-04-29T05:52:01;0.50;;;0.50;;
14900;SDS011;7542;49.078;9.194;2023-04-29T05:53:06;0.73;;;0.73;;
14900;SDS011;7542;49.078;9.194;2023-04-29T05:54:08;1.23;;;0.60;;
14900;SDS011;7542;49.078;9.194;2023-04-29T05:55:10;0.53;;;0.53;;
14900;SDS011;7542;49.078;9.194;2023-04-29T05:56:12;0.77;;;0.77;;
14900;SDS011;7542;49.078;9.194;2023-04-29T05:57:14;4.75;;;0.85;;
14900;SDS011;7542;49.078;9.194;2023-04-29T05:58:17;0.50;;;0.50;;
14900;SDS011;7542;49.078;9.194;2023-04-29T05:59:18;1.40;;;1.13;;
14900;SDS011;7542;49.078;9.194;2023-04-29T06:00:20;0.70;;;0.70;;
14900;SDS011;7542;49.078;9.194;2023-04-29T06:01:22;0.60;;;0.60;;
14900;SDS011;7542;49.078;9.194;2023-04-29T06:02:25;1.70;;;0.80;;
14900;SDS011;7542;49.078;9.194;2023-04-29T06:03:27;1.30;;;0.90;;
14900;SDS011;7542;49.078;9.194;2023-04-29T06:04:30;0.80;;;0.80;;
14900;SDS011;7542;49.078;9.194;2023-04-29T06:05:32;1.13;;;0.80;;
14900;SDS011;7542;49.078;9.194;2023-04-29T06:06:35;0.63;;;0.63;;
14900;SDS011;7542;49.078;9.194;2023-04-29T06:07:38;1.60;;;0.90;;
14900;SDS011;7542;49.078;9.194;2023-04-29T06:08:40;0.77;;;0.77;;
14900;SDS011;7542;49.078;9.194;2023-04-29T06:09:42;0.63;;;0.63;;
14900;SDS011;7542;49.078;9.194;2023-04-29T06:10:44;2.63;;;0.63;;
14900;SDS011;7542;49.078;9.194;2023-04-29T06:11:46;1.23;;;1.13;;
14900;SDS011;7542;49.078;9.194;2023-04-29T06:12:48;0.60;;;0.60;;
14900;SDS011;7542;49.078;9.194;2023-04-29T06:13:52;0.73;;;0.73;;
14900;SDS011;7542;49.078;9.194;2023-04-29T06:14:53;0.60;;;0.60;;
14900;SDS011;7542;49.078;9.194;2023-04-29T06:15:56;1.33;;;0.80;;
14900;SDS011;7542;49.078;9.194;2023-04-29T06:16:58;0.67;;;0.67;;
14900;SDS011;7542;49.078;9.194;2023-04-29T06:18:00;0.80;;;0.80;;
14900;SDS011;7542;49.078;9.194;2023-04-29T06:19:02;1.03;;;0.60;;
14900;SDS011;7542;49.078;9.194;2023-04-29T06:20:04;2.90;;;0.70;;
14900;SDS011;7542;49.078;9.194;2023-04-29T06:21:07;1.63;;;0.67;;
14900;SDS011;7542;49.078;9.194;2023-04-29T06:22:09;2.00;;;0.70;;
14900;SDS011;7542;49.078;9.194;2023-04-29T06:23:11;11.93;;;3.90;;
14900;SDS011;7542;49.078;9.194;2023-04-29T06:24:13;85.30;;;17.63;;
14900;SDS011;7542;49.078;9.194;2023-04-29T06:25:16;345.67;;;58.40;;
14900;SDS011;7542;49.078;9.194;2023-04-29T06:26:18;229.70;;;45.60;;
14900;SDS011;7542;49.078;9.194;2023-04-29T06:27:21;122.97;;;25.43;;
14900;SDS011;7542;49.078;9.194;2023-04-29T06:28:23;105.63;;;22.50;;
14900;SDS011;7542;49.078;9.194;2023-04-29T06:29:24;201.10;;;36.00;;
14900;SDS011;7542;49.078;9.194;2023-04-29T06:30:26;152.17;;;30.67;;
14900;SDS011;7542;49.078;9.194;2023-04-29T06:31:28;108.87;;;23.90;;
14900;SDS011;7542;49.078;9.194;2023-04-29T06:32:30;106.63;;;22.90;;
14900;SDS011;7542;49.078;9.194;2023-04-29T06:33:32;107.17;;;21.93;;
14900;SDS011;7542;49.078;9.194;2023-04-29T06:34:34;93.07;;;18.60;;
14900;SDS011;7542;49.078;9.194;2023-04-29T06:35:40;75.80;;;17.93;;
14900;SDS011;7542;49.078;9.194;2023-04-29T06:36:42;77.17;;;16.93;;
14900;SDS011;7542;49.078;9.194;2023-04-29T06:37:44;77.07;;;17.03;;
14900;SDS011;7542;49.078;9.194;2023-04-29T06:38:46;65.97;;;14.80;;
14900;SDS011;7542;49.078;9.194;2023-04-29T06:39:48;65.57;;;14.97;;